Terminal Aerodrome Forecast
Issued by NWS

Home | Current Version | Previous Version | Text Only | Print | Product List | Glossary On
Versions: 1 2 3 4 5 6 7 8 9 10 11 12 13 14 15 16 17 18 19 20
000
FTUS45 KFGZ 240203 AAA
TAFSEZ
TAF AMD
KSEZ 240203Z 2402/2424 26005KT 5SM -SHSN SCT005 BKN015
      TEMPO 2402/2404 2SM -SHSN OVC005
     FM240500 05004KT P6SM SCT050 SCT090=

USA.gov is the U.S. government's official web portal to all federal, state and local government web resources and services.